Time;durP1;ratioP1;P1;durP2;ratioP2;P2;SDS_P1;SDS_P2;PMS_P1;PMS_P2;Temp;Humidity;BMP_temperature;BMP_pressure;BME280_temperature;BME280_humidity;BME280_pressure;Samples;Min_cycle;Max_cycle;Signal;HPM_P1;HPM_P2
2023/05/22 00:00:12;;;;;;;5.28;3.97;;;18.10;33.70;;;;;;5105309;28;20020;-70
2023/05/22 00:02:41;;;;;;;7.05;3.45;;;18.00;33.80;;;;;;5090789;28;20047;-70
2023/05/22 00:05:10;;;;;;;6.28;3.80;;;18.00;34.10;;;;;;5098999;28;20032;-72
2023/05/22 00:07:37;;;;;;;3.95;3.03;;;18.00;34.20;;;;;;5092551;28;20106;-71
2023/05/22 00:10:03;;;;;;;3.60;2.95;;;17.90;34.00;;;;;;5110771;28;20019;-71
2023/05/22 00:12:29;;;;;;;3.17;2.85;;;17.80;34.40;;;;;;5091639;28;20376;-71
2023/05/22 00:14:54;;;;;;;6.28;3.67;;;17.80;34.40;;;;;;5110592;28;20026;-71
2023/05/22 00:17:20;;;;;;;4.28;3.55;;;17.80;34.50;;;;;;5090366;28;20024;-70
2023/05/22 00:19:46;;;;;;;5.70;3.60;;;17.80;34.60;;;;;;5110304;28;20106;-71
2023/05/22 00:22:11;;;;;;;5.38;3.22;;;17.70;34.70;;;;;;5088509;28;20131;-70
2023/05/22 00:24:37;;;;;;;6.22;2.95;;;17.70;34.70;;;;;;5110657;28;20095;-71
2023/05/22 00:27:03;;;;;;;5.68;3.40;;;17.60;35.10;;;;;;5090496;28;20098;-71
2023/05/22 00:29:29;;;;;;;4.93;3.17;;;17.50;35.10;;;;;;5108143;28;20123;-71
2023/05/22 00:31:54;;;;;;;3.88;3.00;;;17.50;35.50;;;;;;5090576;28;20097;-71
2023/05/22 00:34:19;;;;;;;5.85;3.90;;;17.50;35.20;;;;;;5087818;28;20038;-70
2023/05/22 00:36:45;;;;;;;4.78;2.88;;;17.40;35.30;;;;;;5109416;28;20050;-71
2023/05/22 00:39:10;;;;;;;4.85;2.92;;;17.30;35.40;;;;;;5088616;28;20494;-60
2023/05/22 00:41:37;;;;;;;4.65;3.05;;;17.30;35.90;;;;;;5109715;28;20108;-57
2023/05/22 00:44:03;;;;;;;5.05;3.03;;;17.30;35.80;;;;;;5088397;28;20040;-58
2023/05/22 00:46:28;;;;;;;5.18;3.33;;;17.20;36.00;;;;;;5109252;28;20063;-58
2023/05/22 00:48:54;;;;;;;4.93;2.88;;;17.10;36.30;;;;;;5088522;28;20468;-58
2023/05/22 00:51:20;;;;;;;5.18;3.50;;;17.00;36.70;;;;;;5107958;28;20028;-59
2023/05/22 00:53:46;;;;;;;5.93;3.15;;;17.00;37.30;;;;;;5088200;28;20107;-59
2023/05/22 00:56:14;;;;;;;3.40;2.72;;;16.90;36.70;;;;;;5109292;28;20039;-58
2023/05/22 00:58:40;;;;;;;7.13;3.42;;;16.90;37.10;;;;;;5088037;28;20539;-58
2023/05/22 01:01:08;;;;;;;3.90;2.72;;;16.90;37.10;;;;;;5109055;28;20077;-57
2023/05/22 01:03:36;;;;;;;4.90;3.30;;;16.80;37.30;;;;;;5087821;28;20032;-58
2023/05/22 01:06:02;;;;;;;4.97;3.42;;;16.80;38.00;;;;;;5104551;28;20112;-59
2023/05/22 01:08:27;;;;;;;3.40;2.90;;;16.70;37.60;;;;;;5099074;28;20051;-56
2023/05/22 01:11:03;;;;;;;4.72;3.25;;;16.70;38.00;;;;;;5089877;28;20424;-58
2023/05/22 01:13:49;;;;;;;4.90;3.40;;;16.60;38.60;;;;;;5089659;28;20063;-56
2023/05/22 01:16:45;;;;;;;4.80;3.33;;;16.60;39.10;;;;;;5069181;28;20044;-58
2023/05/22 01:19:46;;;;;;;3.83;3.40;;;16.50;39.80;;;;;;5084330;28;20448;-58
2023/05/22 01:22:46;;;;;;;6.00;3.60;;;16.40;39.90;;;;;;5068430;28;20032;-59
2023/05/22 01:25:29;;;;;;;10.32;3.60;;;16.30;40.70;;;;;;5107896;28;20035;-59
2023/05/22 01:28:17;;;;;;;5.63;3.45;;;16.30;41.20;;;;;;5093731;28;20036;-58
2023/05/22 01:31:12;;;;;;;7.78;4.07;;;16.20;41.80;;;;;;5089685;28;20032;-58
2023/05/22 01:33:59;;;;;;;7.53;4.10;;;16.20;42.40;;;;;;5091525;28;20027;-57
2023/05/22 01:36:27;;;;;;;5.30;3.33;;;16.10;42.60;;;;;;5088990;28;20024;-58
2023/05/22 01:38:53;;;;;;;5.50;3.50;;;16.10;41.90;;;;;;5092537;28;20047;-58
2023/05/22 01:41:20;;;;;;;6.70;4.18;;;16.00;42.40;;;;;;5108727;28;20027;-57
2023/05/22 01:43:46;;;;;;;5.55;3.28;;;16.00;41.90;;;;;;5085975;28;20031;-56
2023/05/22 01:46:11;;;;;;;5.18;3.38;;;16.00;41.90;;;;;;5107236;28;20367;-59
2023/05/22 01:48:37;;;;;;;4.03;3.03;;;15.90;42.40;;;;;;5087618;28;20410;-59
2023/05/22 01:51:12;;;;;;;5.55;3.88;;;15.90;42.50;;;;;;5108749;28;20059;-59
2023/05/22 01:53:54;;;;;;;5.43;3.43;;;15.80;43.00;;;;;;5082982;28;20040;-58
2023/05/22 01:56:29;;;;;;;6.65;3.50;;;15.80;43.70;;;;;;5068845;28;20278;-58
2023/05/22 01:59:29;;;;;;;7.07;3.65;;;15.70;42.70;;;;;;5080597;28;20072;-58
2023/05/22 02:01:57;;;;;;;5.68;4.03;;;15.70;44.00;;;;;;5042881;28;20039;-59
2023/05/22 02:04:24;;;;;;;6.53;3.15;;;15.70;44.10;;;;;;5109139;28;20107;-56
2023/05/22 02:06:52;;;;;;;6.50;3.28;;;15.60;43.70;;;;;;5084477;28;20025;-59
2023/05/22 02:09:19;;;;;;;5.00;3.50;;;15.60;43.50;;;;;;5089015;28;20052;-57
2023/05/22 02:11:46;;;;;;;11.57;3.25;;;15.60;43.90;;;;;;5106724;28;20034;-59
2023/05/22 02:14:12;;;;;;;5.35;3.35;;;15.50;44.30;;;;;;5109265;28;20024;-58
2023/05/22 02:16:38;;;;;;;4.43;3.47;;;15.50;44.20;;;;;;5089103;28;20522;-58
2023/05/22 02:19:06;;;;;;;4.95;3.50;;;15.50;44.60;;;;;;5086865;28;20020;-59
2023/05/22 02:21:33;;;;;;;5.57;4.07;;;15.50;44.30;;;;;;5107361;28;20051;-59
2023/05/22 02:23:59;;;;;;;5.95;3.38;;;15.50;44.00;;;;;;5087165;28;20109;-58
2023/05/22 02:26:24;;;;;;;6.60;3.10;;;15.50;44.30;;;;;;5108214;28;20131;-58
2023/05/22 02:28:50;;;;;;;7.47;3.55;;;15.40;44.10;;;;;;5086127;28;20047;-58
2023/05/22 02:31:17;;;;;;;5.60;3.60;;;15.40;44.30;;;;;;5108218;28;20055;-59
2023/05/22 02:33:42;;;;;;;4.50;3.45;;;15.40;45.00;;;;;;5087054;28;20036;-58
2023/05/22 02:36:09;;;;;;;7.18;3.13;;;15.40;45.60;;;;;;5108183;28;20024;-59
2023/05/22 02:38:35;;;;;;;3.75;3.38;;;15.30;45.00;;;;;;5087085;28;20031;-59
2023/05/22 02:41:01;;;;;;;4.30;3.55;;;15.30;46.00;;;;;;5108216;28;20054;-59
2023/05/22 02:43:26;;;;;;;4.97;2.97;;;15.30;45.30;;;;;;5086936;28;20077;-58
2023/05/22 02:45:52;;;;;;;3.85;2.83;;;15.20;45.50;;;;;;5111620;28;20247;-59
2023/05/22 02:48:18;;;;;;;4.53;3.10;;;15.20;45.70;;;;;;5090747;28;20381;-58
2023/05/22 02:50:43;;;;;;;6.22;3.38;;;15.20;45.50;;;;;;5111611;28;20023;-59
2023/05/22 02:53:09;;;;;;;5.97;3.83;;;15.20;45.70;;;;;;5090566;28;20409;-59
2023/05/22 02:55:34;;;;;;;6.43;3.20;;;15.10;46.10;;;;;;5111482;28;20542;-58
2023/05/22 02:58:01;;;;;;;4.15;3.45;;;15.10;45.60;;;;;;5101236;28;20422;-58
2023/05/22 03:00:26;;;;;;;5.97;3.33;;;15.10;45.90;;;;;;5092022;28;20030;-58
2023/05/22 03:02:52;;;;;;;7.25;4.10;;;15.10;45.90;;;;;;5109564;28;20032;-58
2023/05/22 03:05:17;;;;;;;8.50;3.60;;;15.10;46.40;;;;;;5097412;28;20498;-59
2023/05/22 03:07:43;;;;;;;3.53;3.17;;;15.10;46.50;;;;;;5098584;28;20028;-60
2023/05/22 03:10:09;;;;;;;6.60;3.40;;;15.10;47.50;;;;;;5092105;28;20453;-57
2023/05/22 03:12:34;;;;;;;4.82;3.20;;;15.00;47.30;;;;;;5109019;28;20069;-58
2023/05/22 03:15:00;;;;;;;8.88;3.80;;;15.00;47.20;;;;;;5112201;28;20383;-59
2023/05/22 03:17:26;;;;;;;6.15;3.65;;;15.00;47.30;;;;;;5088800;28;20050;-60
2023/05/22 03:19:51;;;;;;;5.07;3.30;;;15.00;47.20;;;;;;5111278;28;20023;-57
2023/05/22 03:22:17;;;;;;;5.95;3.83;;;15.00;48.00;;;;;;5100188;28;20051;-58
2023/05/22 03:24:43;;;;;;;7.03;3.88;;;15.00;47.60;;;;;;5091862;28;20020;-58
2023/05/22 03:27:08;;;;;;;4.70;3.50;;;15.00;48.00;;;;;;5108954;28;20054;-58
2023/05/22 03:29:35;;;;;;;6.40;3.50;;;15.00;48.00;;;;;;5091678;28;20108;-59
2023/05/22 03:32:02;;;;;;;6.93;3.63;;;15.00;48.20;;;;;;5108874;28;20020;-58
2023/05/22 03:34:28;;;;;;;5.85;3.70;;;15.00;48.50;;;;;;5091493;28;20020;-59
2023/05/22 03:36:56;;;;;;;6.65;3.50;;;14.90;48.80;;;;;;5109009;28;20027;-60
2023/05/22 03:39:22;;;;;;;8.07;3.53;;;15.00;48.80;;;;;;5111585;28;20024;-59
2023/05/22 03:41:47;;;;;;;6.63;3.83;;;15.00;48.50;;;;;;5085627;28;20035;-59
2023/05/22 03:44:13;;;;;;;3.83;3.40;;;15.00;49.20;;;;;;5111518;28;20604;-58
2023/05/22 03:46:38;;;;;;;4.88;3.75;;;15.00;48.80;;;;;;5091595;28;20029;-57
2023/05/22 03:49:04;;;;;;;7.35;3.95;;;15.10;48.60;;;;;;5109235;28;20438;-58
2023/05/22 03:51:30;;;;;;;5.18;4.03;;;15.20;49.50;;;;;;5091446;28;20524;-58
2023/05/22 03:53:56;;;;;;;4.80;3.72;;;15.30;48.60;;;;;;5090090;28;20036;-59
2023/05/22 03:56:21;;;;;;;4.28;3.10;;;15.40;48.60;;;;;;5110061;28;20031;-58
2023/05/22 03:58:47;;;;;;;5.68;3.83;;;15.70;47.60;;;;;;5089571;28;20068;-58
2023/05/22 04:01:12;;;;;;;6.93;3.90;;;15.90;47.10;;;;;;5110572;28;20034;-59
2023/05/22 04:03:38;;;;;;;4.03;3.20;;;16.00;46.20;;;;;;5089460;28;20061;-58
2023/05/22 04:06:04;;;;;;;4.97;3.80;;;16.20;45.30;;;;;;5110109;28;20540;-57
2023/05/22 04:08:30;;;;;;;5.68;3.70;;;16.40;45.10;;;;;;5088007;28;20406;-57
2023/05/22 04:10:55;;;;;;;6.07;3.78;;;16.60;44.30;;;;;;5109108;28;20118;-59
2023/05/22 04:13:21;;;;;;;5.90;3.55;;;16.90;42.50;;;;;;5089152;28;20104;-57
2023/05/22 04:15:48;;;;;;;5.10;3.80;;;17.10;41.60;;;;;;5110163;28;20076;-58
2023/05/22 04:18:14;;;;;;;6.30;4.05;;;17.40;41.60;;;;;;5088938;28;20024;-59
2023/05/22 04:20:40;;;;;;;5.43;3.60;;;17.50;40.80;;;;;;5110087;28;20019;-58
2023/05/22 04:23:06;;;;;;;7.15;3.97;;;17.90;38.40;;;;;;5089164;28;20036;-59
2023/05/22 04:25:33;;;;;;;8.02;4.20;;;18.10;37.60;;;;;;5105572;28;20044;-60
2023/05/22 04:28:01;;;;;;;6.13;3.55;;;18.30;36.10;;;;;;5099246;28;20110;-57
2023/05/22 04:30:27;;;;;;;6.40;3.47;;;18.50;36.50;;;;;;5090355;28;20032;-58
2023/05/22 04:32:52;;;;;;;6.25;3.70;;;18.90;36.20;;;;;;5068761;28;20056;-57
2023/05/22 04:35:18;;;;;;;6.07;3.78;;;19.30;34.60;;;;;;5108937;28;20506;-57
2023/05/22 04:37:46;;;;;;;6.75;4.43;;;19.60;34.20;;;;;;5088941;28;20056;-58
2023/05/22 04:40:14;;;;;;;7.95;4.07;;;19.70;30.10;;;;;;5110363;28;20053;-58
2023/05/22 04:42:41;;;;;;;5.55;4.03;;;20.00;29.60;;;;;;5088384;28;20190;-59
2023/05/22 04:45:07;;;;;;;5.88;4.20;;;20.30;29.50;;;;;;5109878;28;20122;-58
2023/05/22 04:47:33;;;;;;;7.45;4.25;;;20.60;28.00;;;;;;5087040;28;20035;-58
2023/05/22 04:49:59;;;;;;;7.47;4.15;;;20.80;28.40;;;;;;5109592;28;20035;-58
2023/05/22 04:52:27;;;;;;;6.43;4.45;;;20.90;28.00;;;;;;5088440;28;20024;-58
2023/05/22 04:54:54;;;;;;;8.30;3.83;;;21.10;27.20;;;;;;5109921;28;20033;-58
2023/05/22 04:57:20;;;;;;;7.07;3.90;;;21.60;27.30;;;;;;5088285;28;20020;-58
2023/05/22 04:59:46;;;;;;;11.95;4.07;;;21.70;26.90;;;;;;5109337;28;20034;-58
2023/05/22 05:02:12;;;;;;;5.60;3.88;;;22.10;23.80;;;;;;5088280;28;20035;-57
2023/05/22 05:04:38;;;;;;;6.50;3.88;;;22.20;25.30;;;;;;5106076;28;20491;-57
2023/05/22 05:07:04;;;;;;;4.47;3.92;;;22.40;23.10;;;;;;5096487;28;20429;-59
2023/05/22 05:09:30;;;;;;;6.75;3.35;;;22.40;25.10;;;;;;5086288;28;20422;-57
2023/05/22 05:11:57;;;;;;;3.88;3.22;;;22.70;24.30;;;;;;5108836;28;20098;-57
2023/05/22 05:14:22;;;;;;;6.65;4.05;;;23.00;23.80;;;;;;5087854;28;20056;-57
2023/05/22 05:16:50;;;;;;;7.07;3.00;;;23.10;21.80;;;;;;5108744;28;20062;-56
2023/05/22 05:19:20;;;;;;;8.35;3.63;;;23.30;22.90;;;;;;5087580;28;20020;-58
2023/05/22 05:21:47;;;;;;;9.48;3.83;;;23.20;21.80;;;;;;5109346;28;20019;-58
2023/05/22 05:24:13;;;;;;;5.72;4.00;;;23.30;22.60;;;;;;5087518;28;20750;-57
2023/05/22 05:26:39;;;;;;;5.78;3.88;;;23.60;21.20;;;;;;5108572;28;20051;-58
2023/05/22 05:29:04;;;;;;;7.38;4.63;;;23.70;20.60;;;;;;5087722;28;20024;-57
2023/05/22 05:31:31;;;;;;;6.53;4.10;;;23.10;20.20;;;;;;5108493;28;20495;-58
2023/05/22 05:33:57;;;;;;;5.32;3.33;;;23.10;21.40;;;;;;5087434;28;20445;-59
2023/05/22 05:36:25;;;;;;;8.30;4.15;;;23.00;21.90;;;;;;5100203;28;20494;-57
2023/05/22 05:38:51;;;;;;;7.45;3.80;;;22.80;22.20;;;;;;5087713;28;20035;-57
2023/05/22 05:41:17;;;;;;;7.15;4.25;;;22.90;21.30;;;;;;5089717;28;20449;-57
2023/05/22 05:43:43;;;;;;;5.68;3.75;;;22.70;21.80;;;;;;5107606;28;20025;-55
2023/05/22 05:46:09;;;;;;;6.13;3.72;;;22.50;22.20;;;;;;5088646;28;20397;-57
2023/05/22 05:48:34;;;;;;;5.22;3.85;;;22.60;22.80;;;;;;5107984;28;20030;-56
2023/05/22 05:51:00;;;;;;;5.90;4.65;;;22.50;22.30;;;;;;5086707;28;20035;-55
2023/05/22 05:53:26;;;;;;;6.65;4.15;;;22.40;22.50;;;;;;5107802;28;20028;-52
2023/05/22 05:55:52;;;;;;;9.27;4.03;;;22.30;22.70;;;;;;5085828;28;20115;-53
2023/05/22 05:58:18;;;;;;;7.47;3.97;;;22.50;22.80;;;;;;5107891;28;20095;-57
2023/05/22 06:00:43;;;;;;;7.35;4.15;;;22.70;22.50;;;;;;5088177;28;20044;-54
2023/05/22 06:03:09;;;;;;;8.82;4.03;;;23.70;21.60;;;;;;5086142;28;20227;-56
2023/05/22 06:05:34;;;;;;;6.00;3.45;;;24.50;20.40;;;;;;5091272;28;20027;-55
2023/05/22 06:08:00;;;;;;;7.13;3.90;;;25.60;19.60;;;;;;5087377;28;20036;-55
2023/05/22 06:10:25;;;;;;;5.97;4.13;;;26.30;16.90;;;;;;5106950;28;20346;-56
2023/05/22 06:12:51;;;;;;;6.20;3.97;;;25.90;16.60;;;;;;5098310;28;20111;-57
2023/05/22 06:15:17;;;;;;;8.07;3.60;;;26.60;16.20;;;;;;5106381;28;20076;-57
2023/05/22 06:17:42;;;;;;;4.43;3.85;;;27.20;14.40;;;;;;5086457;28;20047;-55
2023/05/22 06:20:08;;;;;;;4.55;4.07;;;26.50;15.10;;;;;;5111235;28;20545;-56
2023/05/22 06:22:34;;;;;;;5.43;3.80;;;26.90;15.70;;;;;;5089784;28;20395;-57
2023/05/22 06:25:00;;;;;;;8.70;3.70;;;27.10;13.50;;;;;;5109556;28;20039;-57
2023/05/22 06:27:26;;;;;;;7.03;3.70;;;26.80;14.90;;;;;;5089657;28;20101;-57
2023/05/22 06:29:52;;;;;;;7.50;4.35;;;27.30;13.20;;;;;;5110837;28;20023;-58
2023/05/22 06:32:18;;;;;;;8.75;3.50;;;27.60;12.70;;;;;;5089706;28;20122;-59
2023/05/22 06:34:45;;;;;;;7.03;3.67;;;28.60;12.70;;;;;;5107891;28;20107;-57
2023/05/22 06:37:12;;;;;;;6.10;3.83;;;27.50;13.30;;;;;;5101364;28;20023;-53
2023/05/22 06:39:38;;;;;;;5.97;3.88;;;27.40;12.80;;;;;;5092566;28;20024;-57
2023/05/22 06:42:03;;;;;;;4.75;3.63;;;27.60;13.00;;;;;;5109647;28;20032;-49
2023/05/22 06:44:29;;;;;;;5.65;4.10;;;27.70;12.50;;;;;;5093437;28;20513;-52
2023/05/22 06:46:54;;;;;;;5.75;3.78;;;26.90;13.60;;;;;;5112254;28;20031;-62
2023/05/22 06:49:20;;;;;;;6.43;3.85;;;26.60;13.60;;;;;;5092772;28;20031;-61
2023/05/22 06:51:45;;;;;;;6.93;3.45;;;27.00;13.50;;;;;;5112107;28;20050;-61
2023/05/22 06:54:12;;;;;;;7.55;3.53;;;27.50;13.30;;;;;;5091322;28;20036;-61
2023/05/22 06:56:39;;;;;;;5.90;3.83;;;28.20;12.70;;;;;;5112093;28;20244;-61
2023/05/22 06:59:04;;;;;;;4.57;3.38;;;28.70;11.90;;;;;;5094678;28;20023;-62
2023/05/22 07:01:30;;;;;;;8.77;4.15;;;29.10;11.40;;;;;;5109817;28;20513;-61
2023/05/22 07:03:57;;;;;;;5.03;3.33;;;28.40;10.70;;;;;;5112436;28;20026;-62
2023/05/22 07:06:23;;;;;;;5.15;4.00;;;28.20;11.10;;;;;;5090266;28;20016;-61
2023/05/22 07:08:49;;;;;;;4.68;3.47;;;27.90;11.40;;;;;;5112447;28;20027;-62
2023/05/22 07:11:15;;;;;;;6.47;3.63;;;28.00;11.90;;;;;;5095107;28;20030;-62
2023/05/22 07:13:40;;;;;;;4.80;4.03;;;28.70;11.20;;;;;;5111848;28;20382;-61
2023/05/22 07:16:06;;;;;;;6.13;3.70;;;28.60;10.10;;;;;;5094029;28;20024;-62
2023/05/22 07:18:32;;;;;;;5.55;3.55;;;28.90;10.70;;;;;;5111543;28;20047;-62
2023/05/22 07:20:58;;;;;;;6.75;3.95;;;28.50;10.50;;;;;;5092724;28;20395;-62
2023/05/22 07:23:23;;;;;;;4.15;3.58;;;28.20;10.80;;;;;;5111440;28;20027;-61
2023/05/22 07:25:49;;;;;;;4.82;3.45;;;28.40;10.90;;;;;;5094368;28;20491;-62
2023/05/22 07:28:14;;;;;;;4.28;2.75;;;28.80;10.80;;;;;;5091045;28;20028;-62
2023/05/22 07:30:40;;;;;;;6.93;4.18;;;29.80;9.70;;;;;;5107926;28;20031;-61
2023/05/22 07:33:06;;;;;;;4.05;3.22;;;30.00;8.90;;;;;;5111396;28;20027;-62
2023/05/22 07:35:31;;;;;;;6.15;3.67;;;30.40;9.00;;;;;;5091316;28;20030;-62
2023/05/22 07:37:57;;;;;;;6.88;3.90;;;29.50;9.30;;;;;;5088977;28;20036;-62
2023/05/22 07:40:22;;;;;;;5.00;3.40;;;29.80;8.80;;;;;;5110274;28;20036;-61
2023/05/22 07:42:48;;;;;;;6.53;3.60;;;30.30;9.60;;;;;;5089232;28;20063;-62
2023/05/22 07:45:13;;;;;;;5.53;3.30;;;30.40;8.60;;;;;;5110412;28;20028;-62
2023/05/22 07:47:39;;;;;;;5.80;4.15;;;30.20;9.20;;;;;;5089322;28;20052;-62
2023/05/22 07:50:05;;;;;;;8.55;3.80;;;29.80;7.90;;;;;;5110379;28;20113;-62
2023/05/22 07:52:31;;;;;;;3.35;2.85;;;28.90;9.90;;;;;;5089165;28;20038;-62
2023/05/22 07:54:57;;;;;;;6.68;4.05;;;29.50;9.90;;;;;;5108244;28;20476;-62
2023/05/22 07:57:23;;;;;;;3.83;3.35;;;29.10;9.70;;;;;;5111011;28;20035;-62
2023/05/22 07:59:49;;;;;;;4.90;3.38;;;29.20;10.00;;;;;;5095340;28;20028;-62
2023/05/22 08:02:16;;;;;;;4.85;3.78;;;29.10;9.40;;;;;;5110722;28;20102;-62
2023/05/22 08:04:41;;;;;;;7.00;4.18;;;29.10;9.70;;;;;;5088496;28;20023;-62
2023/05/22 08:07:07;;;;;;;5.85;3.65;;;28.30;10.20;;;;;;5110775;28;20024;-62
2023/05/22 08:09:32;;;;;;;4.70;3.30;;;28.70;9.40;;;;;;5092977;28;20041;-62
2023/05/22 08:11:58;;;;;;;5.05;3.05;;;29.40;9.20;;;;;;5110539;28;20031;-62
2023/05/22 08:14:24;;;;;;;4.95;3.28;;;29.90;9.10;;;;;;5093103;28;20080;-62
2023/05/22 08:16:49;;;;;;;4.75;3.22;;;30.50;8.80;;;;;;5110565;28;20432;-62
2023/05/22 08:19:15;;;;;;;3.85;3.22;;;31.00;8.20;;;;;;5091742;28;20482;-62
2023/05/22 08:21:40;;;;;;;4.20;3.53;;;30.50;7.70;;;;;;5110580;28;20023;-62
2023/05/22 08:24:07;;;;;;;4.18;3.25;;;30.20;8.00;;;;;;5090420;28;20161;-62
2023/05/22 08:26:32;;;;;;;7.78;3.70;;;30.80;7.80;;;;;;5097341;28;20044;-62
2023/05/22 08:28:59;;;;;;;6.38;3.80;;;29.90;6.50;;;;;;5107514;28;20117;-62
2023/05/22 08:31:24;;;;;;;4.82;3.10;;;29.40;7.90;;;;;;5110204;27;20050;-62
2023/05/22 08:33:49;;;;;;;5.28;3.78;;;28.50;8.80;;;;;;5090073;28;20036;-62
2023/05/22 08:36:15;;;;;;;8.27;3.17;;;28.30;8.90;;;;;;5107763;28;20418;-62
2023/05/22 08:38:41;;;;;;;3.42;3.13;;;27.70;9.50;;;;;;5090166;28;20040;-62
2023/05/22 08:41:07;;;;;;;4.32;2.92;;;27.40;9.90;;;;;;5088093;28;20480;-62
2023/05/22 08:43:33;;;;;;;6.15;3.58;;;27.60;10.10;;;;;;5107513;28;20042;-61
2023/05/22 08:46:07;;;;;;;10.68;3.92;;;27.20;9.50;;;;;;5088239;28;20181;-62
2023/05/22 08:48:33;;;;;;;4.00;2.92;;;26.80;10.80;;;;;;5109435;28;20070;-62
2023/05/22 08:51:03;;;;;;;6.40;3.40;;;27.20;10.80;;;;;;5072888;28;20055;-62
2023/05/22 08:53:36;;;;;;;4.90;3.20;;;27.30;10.10;;;;;;5107466;28;20142;-62
2023/05/22 08:56:04;;;;;;;6.68;3.63;;;27.50;10.70;;;;;;5081401;28;20214;-62
2023/05/22 08:58:32;;;;;;;5.68;3.15;;;27.80;9.70;;;;;;5109232;28;20034;-62
2023/05/22 09:00:58;;;;;;;4.13;3.00;;;28.10;10.00;;;;;;5087817;28;20495;-62
2023/05/22 09:03:27;;;;;;;4.63;2.80;;;27.80;9.50;;;;;;5108804;28;20415;-62
2023/05/22 09:05:53;;;;;;;6.55;3.40;;;27.30;10.00;;;;;;5084354;28;20256;-62
2023/05/22 09:08:19;;;;;;;6.45;3.05;;;27.10;10.00;;;;;;5108755;28;20505;-61
2023/05/22 09:10:44;;;;;;;8.23;3.40;;;27.30;10.00;;;;;;5087655;28;20036;-62
2023/05/22 09:13:21;;;;;;;4.32;3.10;;;27.60;10.30;;;;;;5108605;28;20040;-62
2023/05/22 09:15:47;;;;;;;5.63;3.35;;;27.80;10.10;;;;;;5091489;28;20024;-62
2023/05/22 09:18:12;;;;;;;5.70;3.10;;;27.90;10.30;;;;;;5089792;28;20039;-62
2023/05/22 09:20:38;;;;;;;4.13;2.80;;;27.90;9.00;;;;;;5106502;28;20507;-62
2023/05/22 09:23:13;;;;;;;6.18;2.85;;;27.90;8.70;;;;;;5089834;28;20028;-62
2023/05/22 09:25:41;;;;;;;7.43;3.17;;;27.20;8.30;;;;;;5106864;28;20395;-62
2023/05/22 09:28:07;;;;;;;5.50;2.92;;;27.30;8.80;;;;;;5088995;28;20120;-63
2023/05/22 09:30:34;;;;;;;4.13;2.92;;;27.50;8.60;;;;;;5106645;28;20059;-63
2023/05/22 09:33:00;;;;;;;5.55;2.67;;;27.60;8.30;;;;;;5089325;28;20559;-62
2023/05/22 09:35:26;;;;;;;3.80;2.72;;;27.80;7.60;;;;;;5106433;28;20150;-63
2023/05/22 09:37:54;;;;;;;3.25;2.53;;;27.90;7.50;;;;;;5089212;28;20067;-61
2023/05/22 09:40:21;;;;;;;6.20;3.15;;;27.80;7.40;;;;;;5106717;28;20334;-61
2023/05/22 09:42:46;;;;;;;5.35;2.55;;;27.80;7.50;;;;;;5108826;28;20020;-61
2023/05/22 09:45:12;;;;;;;3.33;2.63;;;27.60;7.60;;;;;;5093490;28;20161;-61
2023/05/22 09:47:39;;;;;;;6.53;3.22;;;27.20;7.80;;;;;;5107709;28;20023;-62
2023/05/22 09:50:06;;;;;;;3.30;3.00;;;26.80;7.60;;;;;;5092265;28;20515;-61
2023/05/22 09:52:33;;;;;;;5.05;2.42;;;26.30;8.20;;;;;;5109267;28;20020;-61
2023/05/22 09:55:05;;;;;;;7.22;3.00;;;26.40;8.50;;;;;;5095425;28;20026;-59
2023/05/22 09:57:35;;;;;;;8.32;2.75;;;26.60;8.50;;;;;;5113054;28;20031;-59
2023/05/22 10:00:08;;;;;;;6.15;2.78;;;26.70;8.00;;;;;;5095251;28;20035;-59
2023/05/22 10:02:34;;;;;;;4.72;2.95;;;26.60;8.20;;;;;;5113292;28;20031;-59
2023/05/22 10:05:02;;;;;;;4.25;3.30;;;26.60;8.20;;;;;;5088800;28;20036;-59
2023/05/22 10:07:36;;;;;;;5.95;3.15;;;26.70;8.10;;;;;;5092562;28;20471;-58
2023/05/22 10:10:10;;;;;;;5.07;2.85;;;26.50;8.20;;;;;;5079860;28;20047;-59
2023/05/22 10:13:00;;;;;;;7.25;3.63;;;26.60;8.20;;;;;;5112826;28;20028;-59
2023/05/22 10:15:26;;;;;;;4.95;2.92;;;26.30;8.70;;;;;;5071626;28;20049;-58
2023/05/22 10:17:52;;;;;;;5.15;3.10;;;26.30;8.60;;;;;;5111531;28;20034;-58
2023/05/22 10:20:18;;;;;;;6.15;2.50;;;26.20;8.30;;;;;;5090794;28;20027;-59
2023/05/22 10:22:46;;;;;;;5.78;2.97;;;26.10;8.40;;;;;;5111996;28;20054;-59
2023/05/22 10:25:12;;;;;;;3.53;3.00;;;26.10;9.30;;;;;;5091516;28;20523;-59
2023/05/22 10:27:38;;;;;;;5.38;2.92;;;25.90;8.80;;;;;;5112732;28;20027;-58
2023/05/22 10:30:39;;;;;;;5.40;2.85;;;26.20;8.90;;;;;;5090693;28;20035;-58
2023/05/22 10:33:36;;;;;;;4.55;2.45;;;26.40;9.10;;;;;;5008249;28;20029;-59
2023/05/22 10:36:08;;;;;;;13.57;2.83;;;26.60;8.10;;;;;;5080973;28;20388;-60
2023/05/22 10:38:49;;;;;;;5.60;2.90;;;26.70;7.70;;;;;;5112355;28;20494;-58
2023/05/22 10:41:15;;;;;;;4.93;3.28;;;26.20;7.50;;;;;;5086056;28;20081;-61
2023/05/22 10:43:45;;;;;;;5.07;2.75;;;26.10;7.60;;;;;;5091600;28;20039;-60
2023/05/22 10:46:11;;;;;;;5.03;2.88;;;25.60;7.80;;;;;;5112295;28;20023;-59
2023/05/22 10:48:38;;;;;;;5.53;2.78;;;25.50;7.80;;;;;;5090491;28;20023;-58
2023/05/22 10:51:06;;;;;;;5.30;2.85;;;25.60;8.30;;;;;;5104314;28;20030;-59
2023/05/22 10:53:34;;;;;;;3.17;2.75;;;25.70;7.80;;;;;;5090650;28;20028;-61
2023/05/22 10:56:09;;;;;;;7.35;2.75;;;25.70;7.70;;;;;;5089202;28;20118;-60
2023/05/22 10:58:37;;;;;;;6.03;2.87;;;25.50;7.40;;;;;;5111163;28;20026;-60
2023/05/22 11:01:11;;;;;;;5.15;2.53;;;25.40;8.00;;;;;;5090269;28;20266;-61
2023/05/22 11:03:57;;;;;;;3.85;2.97;;;25.30;7.80;;;;;;5110760;28;20038;-60
2023/05/22 11:06:33;;;;;;;5.65;2.95;;;25.20;8.60;;;;;;5089170;28;20563;-60
2023/05/22 11:08:59;;;;;;;3.55;2.85;;;25.30;8.00;;;;;;5110883;28;20016;-61
2023/05/22 11:11:27;;;;;;;3.17;2.22;;;25.40;7.20;;;;;;5093300;28;20028;-61
2023/05/22 11:14:02;;;;;;;3.95;2.78;;;25.20;8.10;;;;;;5110866;28;20077;-61
2023/05/22 11:16:31;;;;;;;5.15;3.25;;;25.30;8.00;;;;;;5077736;28;20022;-61
2023/05/22 11:19:07;;;;;;;4.82;2.33;;;25.30;7.50;;;;;;5110891;28;20238;-61
2023/05/22 11:21:46;;;;;;;10.70;3.00;;;25.50;7.80;;;;;;5094215;28;20654;-61
2023/05/22 11:24:14;;;;;;;4.75;2.80;;;25.60;7.80;;;;;;5110472;28;20034;-61
2023/05/22 11:26:43;;;;;;;3.90;2.90;;;25.40;7.30;;;;;;5088319;27;20043;-61
2023/05/22 11:29:09;;;;;;;4.68;2.58;;;25.20;6.80;;;;;;5101597;28;20077;-61
2023/05/22 11:31:36;;;;;;;6.85;2.72;;;25.20;6.90;;;;;;5096745;28;20030;-61
2023/05/22 11:34:02;;;;;;;4.43;3.50;;;25.20;6.80;;;;;;5089970;28;20480;-60
2023/05/22 11:36:28;;;;;;;3.65;2.58;;;25.20;6.50;;;;;;5107363;28;20071;-61
2023/05/22 11:38:58;;;;;;;4.53;2.60;;;25.30;6.90;;;;;;5090247;28;20426;-60
2023/05/22 11:41:28;;;;;;;4.82;2.50;;;25.30;5.70;;;;;;5107398;28;20026;-60
2023/05/22 11:43:53;;;;;;;4.72;2.70;;;25.50;6.40;;;;;;5087806;28;20028;-61
2023/05/22 11:46:19;;;;;;;4.15;2.97;;;25.60;6.20;;;;;;5109576;28;20031;-60
2023/05/22 11:48:46;;;;;;;5.45;2.40;;;25.60;5.30;;;;;;5088483;28;20058;-60
2023/05/22 11:51:11;;;;;;;4.10;2.75;;;25.40;5.70;;;;;;5109526;28;20044;-61
2023/05/22 11:53:37;;;;;;;7.07;2.58;;;25.50;6.20;;;;;;5088153;28;20066;-61
2023/05/22 11:56:04;;;;;;;3.97;2.78;;;25.50;4.90;;;;;;5109264;28;20027;-61
2023/05/22 11:58:30;;;;;;;3.35;2.75;;;25.50;5.70;;;;;;5098930;28;20024;-61
2023/05/22 12:01:03;;;;;;;3.67;2.33;;;25.30;4.60;;;;;;5090104;28;20089;-61
2023/05/22 12:03:30;;;;;;;3.75;2.72;;;25.30;5.10;;;;;;5102616;28;20031;-60
2023/05/22 12:05:56;;;;;;;3.55;2.95;;;25.10;4.50;;;;;;5083642;27;20020;-60
2023/05/22 12:08:23;;;;;;;5.78;2.97;;;25.10;4.90;;;;;;5099052;28;20081;-60
2023/05/22 12:10:50;;;;;;;4.03;2.75;;;25.20;5.20;;;;;;5089504;28;20028;-61
2023/05/22 12:13:42;;;;;;;4.53;2.90;;;25.30;4.70;;;;;;5106648;28;20032;-62
2023/05/22 12:16:18;;;;;;;3.75;2.78;;;25.30;4.30;;;;;;5091608;28;20040;-61
2023/05/22 12:18:44;;;;;;;3.90;3.08;;;25.20;3.90;;;;;;5091558;28;20095;-61
2023/05/22 12:21:10;;;;;;;4.10;3.13;;;25.10;4.60;;;;;;5108976;28;20040;-60
2023/05/22 12:23:35;;;;;;;6.15;3.30;;;25.10;4.50;;;;;;5090216;28;20020;-61
2023/05/22 12:26:07;;;;;;;4.80;2.95;;;25.10;4.80;;;;;;5100614;28;20503;-61
2023/05/22 12:28:32;;;;;;;7.35;2.70;;;25.10;4.10;;;;;;5084097;28;20916;-60
2023/05/22 12:30:58;;;;;;;3.47;2.58;;;25.00;3.80;;;;;;5089043;28;20032;-61
2023/05/22 12:33:27;;;;;;;4.03;3.05;;;25.00;3.40;;;;;;5089710;28;20403;-60
2023/05/22 12:35:53;;;;;;;5.32;3.08;;;25.00;4.40;;;;;;5086880;28;20035;-61
2023/05/22 12:38:22;;;;;;;3.67;2.55;;;25.00;4.10;;;;;;5108214;28;20039;-59
2023/05/22 12:40:50;;;;;;;2.72;2.47;;;25.10;4.30;;;;;;5086794;28;20502;-60
2023/05/22 12:43:15;;;;;;;4.18;2.38;;;25.20;4.60;;;;;;5108414;28;20035;-60
2023/05/22 12:45:41;;;;;;;4.97;2.97;;;25.20;4.60;;;;;;5087297;28;20080;-60
2023/05/22 12:48:07;;;;;;;6.32;2.97;;;25.30;4.30;;;;;;5091714;28;20116;-60
2023/05/22 12:50:33;;;;;;;5.57;3.38;;;25.30;4.10;;;;;;5108360;28;20022;-61
2023/05/22 12:53:00;;;;;;;4.88;2.92;;;25.10;4.00;;;;;;5092052;28;20040;-61